sensor_id;sensor_type;location;lat;lon;timestamp;temperature;humidity
72576;DHT22;60613;48.658;2.328;2023-01-08T07:02:36;21.50;44.00
72576;DHT22;60613;48.658;2.328;2023-01-08T07:05:02;21.50;45.00
72576;DHT22;60613;48.658;2.328;2023-01-08T07:07:28;21.50;44.90
72576;DHT22;60613;48.658;2.328;2023-01-08T07:09:53;21.50;44.80
72576;DHT22;60613;48.658;2.328;2023-01-08T07:12:19;21.50;44.80
72576;DHT22;60613;48.658;2.328;2023-01-08T07:14:45;21.50;44.80
72576;DHT22;60613;48.658;2.328;2023-01-08T07:17:10;21.50;44.80
72576;DHT22;60613;48.658;2.328;2023-01-08T07:19:36;21.50;44.50
72576;DHT22;60613;48.658;2.328;2023-01-08T07:22:01;21.50;44.60
72576;DHT22;60613;48.658;2.328;2023-01-08T07:24:27;21.50;44.60
72576;DHT22;60613;48.658;2.328;2023-01-08T07:26:53;21.60;44.60
72576;DHT22;60613;48.658;2.328;2023-01-08T07:29:18;21.60;44.50
72576;DHT22;60613;48.658;2.328;2023-01-08T07:31:44;21.50;42.30
72576;DHT22;60613;48.658;2.328;2023-01-08T07:34:10;21.40;41.30
72576;DHT22;60613;48.658;2.328;2023-01-08T07:36:35;21.20;42.70
72576;DHT22;60613;48.658;2.328;2023-01-08T07:39:01;21.10;43.60
72576;DHT22;60613;48.658;2.328;2023-01-08T07:41:27;20.80;43.40
72576;DHT22;60613;48.658;2.328;2023-01-08T07:43:52;20.60;43.20
72576;DHT22;60613;48.658;2.328;2023-01-08T07:46:18;20.70;42.70
72576;DHT22;60613;48.658;2.328;2023-01-08T07:48:43;20.60;42.30
72576;DHT22;60613;48.658;2.328;2023-01-08T07:51:09;20.50;42.50
72576;DHT22;60613;48.658;2.328;2023-01-08T07:53:36;20.30;42.80
72576;DHT22;60613;48.658;2.328;2023-01-08T07:56:04;20.20;43.50
72576;DHT22;60613;48.658;2.328;2023-01-08T07:58:30;20.00;44.40
72576;DHT22;60613;48.658;2.328;2023-01-08T08:00:56;20.10;45.80
72576;DHT22;60613;48.658;2.328;2023-01-08T08:03:22;20.20;47.40
72576;DHT22;60613;48.658;2.328;2023-01-08T08:05:48;20.40;48.70
72576;DHT22;60613;48.658;2.328;2023-01-08T08:08:14;20.60;48.40
72576;DHT22;60613;48.658;2.328;2023-01-08T08:10:41;20.70;48.10
72576;DHT22;60613;48.658;2.328;2023-01-08T08:13:07;20.80;48.10
72576;DHT22;60613;48.658;2.328;2023-01-08T08:15:33;20.90;48.00
72576;DHT22;60613;48.658;2.328;2023-01-08T08:17:59;21.00;47.50
72576;DHT22;60613;48.658;2.328;2023-01-08T08:20:25;21.10;47.10
72576;DHT22;60613;48.658;2.328;2023-01-08T08:22:52;21.10;46.70
72576;DHT22;60613;48.658;2.328;2023-01-08T08:25:17;21.10;47.00
72576;DHT22;60613;48.658;2.328;2023-01-08T08:27:44;21.20;46.70
72576;DHT22;60613;48.658;2.328;2023-01-08T08:30:10;21.20;46.60
72576;DHT22;60613;48.658;2.328;2023-01-08T08:32:36;21.30;46.30
72576;DHT22;60613;48.658;2.328;2023-01-08T08:35:03;21.30;46.00
72576;DHT22;60613;48.658;2.328;2023-01-08T08:37:29;21.40;46.00
72576;DHT22;60613;48.658;2.328;2023-01-08T08:39:55;21.40;45.70
72576;DHT22;60613;48.658;2.328;2023-01-08T08:42:20;21.50;46.80
72576;DHT22;60613;48.658;2.328;2023-01-08T08:44:46;21.50;45.60
72576;DHT22;60613;48.658;2.328;2023-01-08T08:47:12;21.50;45.70
72576;DHT22;60613;48.658;2.328;2023-01-08T08:49:37;21.50;45.50
72576;DHT22;60613;48.658;2.328;2023-01-08T08:52:04;21.60;45.60
72576;DHT22;60613;48.658;2.328;2023-01-08T08:54:30;21.60;45.40
72576;DHT22;60613;48.658;2.328;2023-01-08T08:56:55;21.60;45.40
72576;DHT22;60613;48.658;2.328;2023-01-08T08:59:21;21.60;45.40
72576;DHT22;60613;48.658;2.328;2023-01-08T09:01:47;21.60;45.40
72576;DHT22;60613;48.658;2.328;2023-01-08T09:04:12;21.70;45.30
72576;DHT22;60613;48.658;2.328;2023-01-08T09:06:38;21.70;45.40
72576;DHT22;60613;48.658;2.328;2023-01-08T09:09:03;21.70;45.20
72576;DHT22;60613;48.658;2.328;2023-01-08T09:11:30;21.70;45.00
72576;DHT22;60613;48.658;2.328;2023-01-08T09:13:56;21.80;45.10
72576;DHT22;60613;48.658;2.328;2023-01-08T09:16:22;21.70;45.00
72576;DHT22;60613;48.658;2.328;2023-01-08T09:18:47;21.80;45.00
72576;DHT22;60613;48.658;2.328;2023-01-08T09:21:14;21.70;44.90
72576;DHT22;60613;48.658;2.328;2023-01-08T09:23:40;21.70;44.90
72576;DHT22;60613;48.658;2.328;2023-01-08T09:26:06;21.70;44.90
72576;DHT22;60613;48.658;2.328;2023-01-08T09:28:32;21.70;45.20
72576;DHT22;60613;48.658;2.328;2023-01-08T09:31:01;21.70;46.10
72576;DHT22;60613;48.658;2.328;2023-01-08T09:33:28;21.70;44.90
72576;DHT22;60613;48.658;2.328;2023-01-08T09:35:53;21.70;44.90
72576;DHT22;60613;48.658;2.328;2023-01-08T09:38:19;21.80;44.80
72576;DHT22;60613;48.658;2.328;2023-01-08T09:41:02;21.80;45.30
72576;DHT22;60613;48.658;2.328;2023-01-08T09:43:31;21.80;45.10
72576;DHT22;60613;48.658;2.328;2023-01-08T09:46:01;21.90;46.10
72576;DHT22;60613;48.658;2.328;2023-01-08T09:48:30;21.90;45.20
72576;DHT22;60613;48.658;2.328;2023-01-08T09:50:56;22.00;45.30
72576;DHT22;60613;48.658;2.328;2023-01-08T09:53:22;22.00;45.60
72576;DHT22;60613;48.658;2.328;2023-01-08T09:55:55;22.00;45.60
72576;DHT22;60613;48.658;2.328;2023-01-08T10:00:55;22.00;46.30
72576;DHT22;60613;48.658;2.328;2023-01-08T10:03:24;22.00;46.00
72576;DHT22;60613;48.658;2.328;2023-01-08T10:05:51;21.90;47.60
72576;DHT22;60613;48.658;2.328;2023-01-08T10:08:17;22.00;49.70
72576;DHT22;60613;48.658;2.328;2023-01-08T10:10:43;22.00;50.20
72576;DHT22;60613;48.658;2.328;2023-01-08T10:13:10;22.00;50.30
72576;DHT22;60613;48.658;2.328;2023-01-08T10:15:36;22.00;49.00
72576;DHT22;60613;48.658;2.328;2023-01-08T10:18:06;22.00;48.70
72576;DHT22;60613;48.658;2.328;2023-01-08T10:20:34;22.10;49.40
72576;DHT22;60613;48.658;2.328;2023-01-08T10:23:27;22.10;48.30
72576;DHT22;60613;48.658;2.328;2023-01-08T10:28:27;22.00;48.20
72576;DHT22;60613;48.658;2.328;2023-01-08T10:31:13;22.00;48.60
72576;DHT22;60613;48.658;2.328;2023-01-08T10:33:44;21.90;47.60
72576;DHT22;60613;48.658;2.328;2023-01-08T10:36:20;21.90;48.40
72576;DHT22;60613;48.658;2.328;2023-01-08T10:38:58;21.80;48.60
72576;DHT22;60613;48.658;2.328;2023-01-08T10:41:25;21.80;48.20
72576;DHT22;60613;48.658;2.328;2023-01-08T10:44:00;21.80;47.70
72576;DHT22;60613;48.658;2.328;2023-01-08T10:46:35;21.80;47.50
72576;DHT22;60613;48.658;2.328;2023-01-08T10:49:03;21.70;47.30
72576;DHT22;60613;48.658;2.328;2023-01-08T10:51:31;21.80;47.60
72576;DHT22;60613;48.658;2.328;2023-01-08T10:54:13;21.90;47.00
72576;DHT22;60613;48.658;2.328;2023-01-08T10:56:43;22.00;47.00
72576;DHT22;60613;48.658;2.328;2023-01-08T10:59:22;22.00;46.70
72576;DHT22;60613;48.658;2.328;2023-01-08T11:01:50;22.10;46.40
72576;DHT22;60613;48.658;2.328;2023-01-08T11:04:23;22.10;46.10
72576;DHT22;60613;48.658;2.328;2023-01-08T11:06:51;22.10;45.90
72576;DHT22;60613;48.658;2.328;2023-01-08T11:09:26;22.10;45.70
72576;DHT22;60613;48.658;2.328;2023-01-08T11:11:53;22.10;45.90
72576;DHT22;60613;48.658;2.328;2023-01-08T11:14:44;22.20;45.70
72576;DHT22;60613;48.658;2.328;2023-01-08T11:17:10;22.20;45.40
72576;DHT22;60613;48.658;2.328;2023-01-08T11:19:37;22.10;45.20
72576;DHT22;60613;48.658;2.328;2023-01-08T11:22:24;22.10;45.30
72576;DHT22;60613;48.658;2.328;2023-01-08T11:24:51;22.10;45.50
72576;DHT22;60613;48.658;2.328;2023-01-08T11:27:34;22.10;45.50
72576;DHT22;60613;48.658;2.328;2023-01-08T11:30:22;22.10;45.50
72576;DHT22;60613;48.658;2.328;2023-01-08T11:33:09;22.00;45.60
72576;DHT22;60613;48.658;2.328;2023-01-08T11:35:43;21.90;45.80
72576;DHT22;60613;48.658;2.328;2023-01-08T11:38:11;21.90;46.20
72576;DHT22;60613;48.658;2.328;2023-01-08T11:43:38;21.80;45.90
72576;DHT22;60613;48.658;2.328;2023-01-08T11:46:40;21.80;46.10
72576;DHT22;60613;48.658;2.328;2023-01-08T11:54:51;21.80;46.00
72576;DHT22;60613;48.658;2.328;2023-01-08T12:03:32;21.80;46.10
72576;DHT22;60613;48.658;2.328;2023-01-08T12:06:12;21.80;46.20
72576;DHT22;60613;48.658;2.328;2023-01-08T12:11:56;21.80;45.80
72576;DHT22;60613;48.658;2.328;2023-01-08T12:17:11;21.80;45.90
72576;DHT22;60613;48.658;2.328;2023-01-08T12:33:38;22.20;45.00
72576;DHT22;60613;48.658;2.328;2023-01-08T12:36:11;22.30;44.80
72576;DHT22;60613;48.658;2.328;2023-01-08T12:38:42;22.20;44.80
72576;DHT22;60613;48.658;2.328;2023-01-08T12:46:14;21.90;45.60
72576;DHT22;60613;48.658;2.328;2023-01-08T12:48:43;21.90;45.50
72576;DHT22;60613;48.658;2.328;2023-01-08T12:51:14;22.00;45.60
72576;DHT22;60613;48.658;2.328;2023-01-08T12:54:05;21.90;45.50
72576;DHT22;60613;48.658;2.328;2023-01-08T13:07:50;21.90;45.40
72576;DHT22;60613;48.658;2.328;2023-01-08T13:12:59;21.90;45.40
72576;DHT22;60613;48.658;2.328;2023-01-08T13:15:27;21.90;45.20
72576;DHT22;60613;48.658;2.328;2023-01-08T13:18:06;21.90;45.40
72576;DHT22;60613;48.658;2.328;2023-01-08T13:20:32;21.90;45.30
72576;DHT22;60613;48.658;2.328;2023-01-08T13:23:00;21.90;45.30
72576;DHT22;60613;48.658;2.328;2023-01-08T13:25:36;21.90;45.40
72576;DHT22;60613;48.658;2.328;2023-01-08T13:30:47;21.90;45.00
72576;DHT22;60613;48.658;2.328;2023-01-08T13:33:27;21.90;44.80
72576;DHT22;60613;48.658;2.328;2023-01-08T13:36:27;21.90;44.90
72576;DHT22;60613;48.658;2.328;2023-01-08T13:41:35;21.90;45.10
72576;DHT22;60613;48.658;2.328;2023-01-08T13:44:05;21.80;45.10
72576;DHT22;60613;48.658;2.328;2023-01-08T13:46:38;21.80;45.00
72576;DHT22;60613;48.658;2.328;2023-01-08T13:49:18;21.80;45.10
72576;DHT22;60613;48.658;2.328;2023-01-08T13:51:48;21.80;44.90
72576;DHT22;60613;48.658;2.328;2023-01-08T13:54:33;21.90;45.40
72576;DHT22;60613;48.658;2.328;2023-01-08T13:57:18;21.90;45.30
72576;DHT22;60613;48.658;2.328;2023-01-08T13:59:52;21.90;45.80
72576;DHT22;60613;48.658;2.328;2023-01-08T14:02:27;21.90;45.50
72576;DHT22;60613;48.658;2.328;2023-01-08T14:04:54;22.00;45.60
72576;DHT22;60613;48.658;2.328;2023-01-08T14:07:21;22.00;46.50
72576;DHT22;60613;48.658;2.328;2023-01-08T14:09:48;22.00;45.70
72576;DHT22;60613;48.658;2.328;2023-01-08T14:12:19;22.00;46.00
72576;DHT22;60613;48.658;2.328;2023-01-08T14:14:56;22.00;47.00
72576;DHT22;60613;48.658;2.328;2023-01-08T14:17:29;22.10;46.40
72576;DHT22;60613;48.658;2.328;2023-01-08T14:19:55;22.10;46.30
72576;DHT22;60613;48.658;2.328;2023-01-08T14:22:32;22.10;45.90
72576;DHT22;60613;48.658;2.328;2023-01-08T14:25:04;22.10;46.60
72576;DHT22;60613;48.658;2.328;2023-01-08T14:27:31;22.20;46.70
72576;DHT22;60613;48.658;2.328;2023-01-08T14:29:57;22.10;47.80
72576;DHT22;60613;48.658;2.328;2023-01-08T14:32:28;22.10;47.80
72576;DHT22;60613;48.658;2.328;2023-01-08T14:34:55;22.10;47.10
72576;DHT22;60613;48.658;2.328;2023-01-08T14:37:22;22.10;48.40
72576;DHT22;60613;48.658;2.328;2023-01-08T14:39:48;22.10;47.30
72576;DHT22;60613;48.658;2.328;2023-01-08T14:47:44;22.00;47.20
72576;DHT22;60613;48.658;2.328;2023-01-08T14:50:31;22.00;46.90
72576;DHT22;60613;48.658;2.328;2023-01-08T14:53:24;22.00;47.10
72576;DHT22;60613;48.658;2.328;2023-01-08T14:55:53;22.00;46.70
72576;DHT22;60613;48.658;2.328;2023-01-08T14:58:23;22.00;46.50
72576;DHT22;60613;48.658;2.328;2023-01-08T15:01:06;21.90;46.50
72576;DHT22;60613;48.658;2.328;2023-01-08T15:03:38;21.90;46.50
72576;DHT22;60613;48.658;2.328;2023-01-08T15:06:05;21.90;46.50
72576;DHT22;60613;48.658;2.328;2023-01-08T15:08:42;21.90;46.30
72576;DHT22;60613;48.658;2.328;2023-01-08T15:13:43;21.90;46.20
72576;DHT22;60613;48.658;2.328;2023-01-08T15:19:12;21.90;46.20
72576;DHT22;60613;48.658;2.328;2023-01-08T15:21:45;21.90;46.10
72576;DHT22;60613;48.658;2.328;2023-01-08T15:24:30;21.90;46.00
72576;DHT22;60613;48.658;2.328;2023-01-08T15:26:56;21.90;46.00
72576;DHT22;60613;48.658;2.328;2023-01-08T15:29:28;21.90;46.00
72576;DHT22;60613;48.658;2.328;2023-01-08T15:32:22;21.90;46.00
72576;DHT22;60613;48.658;2.328;2023-01-08T15:34:48;21.90;46.00
72576;DHT22;60613;48.658;2.328;2023-01-08T15:37:14;21.90;46.00
72576;DHT22;60613;48.658;2.328;2023-01-08T15:39:41;21.80;46.00
72576;DHT22;60613;48.658;2.328;2023-01-08T15:42:20;21.80;46.00
72576;DHT22;60613;48.658;2.328;2023-01-08T15:45:09;21.80;46.10
72576;DHT22;60613;48.658;2.328;2023-01-08T15:47:36;21.90;46.00
72576;DHT22;60613;48.658;2.328;2023-01-08T15:50:02;21.80;46.10
72576;DHT22;60613;48.658;2.328;2023-01-08T15:52:28;21.80;46.10
72576;DHT22;60613;48.658;2.328;2023-01-08T15:54:58;21.90;45.80
72576;DHT22;60613;48.658;2.328;2023-01-08T15:57:24;22.00;45.50
72576;DHT22;60613;48.658;2.328;2023-01-08T15:59:50;22.10;45.50
72576;DHT22;60613;48.658;2.328;2023-01-08T16:02:16;22.20;45.00
72576;DHT22;60613;48.658;2.328;2023-01-08T16:04:43;22.30;44.60
72576;DHT22;60613;48.658;2.328;2023-01-08T16:07:08;22.30;44.80
72576;DHT22;60613;48.658;2.328;2023-01-08T16:09:34;22.30;44.60
72576;DHT22;60613;48.658;2.328;2023-01-08T16:11:59;22.30;45.70
72576;DHT22;60613;48.658;2.328;2023-01-08T16:14:25;22.30;44.80
72576;DHT22;60613;48.658;2.328;2023-01-08T16:16:51;22.30;44.60
72576;DHT22;60613;48.658;2.328;2023-01-08T16:19:16;22.40;44.60
72576;DHT22;60613;48.658;2.328;2023-01-08T16:21:42;22.40;44.40
72576;DHT22;60613;48.658;2.328;2023-01-08T16:24:14;22.40;44.40
72576;DHT22;60613;48.658;2.328;2023-01-08T16:26:40;22.40;44.30
72576;DHT22;60613;48.658;2.328;2023-01-08T16:29:06;22.40;44.40
72576;DHT22;60613;48.658;2.328;2023-01-08T16:31:32;22.40;44.30
72576;DHT22;60613;48.658;2.328;2023-01-08T16:34:02;22.30;44.20
72576;DHT22;60613;48.658;2.328;2023-01-08T16:36:27;22.30;44.40
72576;DHT22;60613;48.658;2.328;2023-01-08T16:38:53;22.20;44.50
72576;DHT22;60613;48.658;2.328;2023-01-08T16:41:18;22.20;44.50
72576;DHT22;60613;48.658;2.328;2023-01-08T16:43:44;22.20;44.50
72576;DHT22;60613;48.658;2.328;2023-01-08T16:46:11;22.10;44.60
72576;DHT22;60613;48.658;2.328;2023-01-08T16:48:37;22.10;44.70
72576;DHT22;60613;48.658;2.328;2023-01-08T16:51:05;22.10;44.90
72576;DHT22;60613;48.658;2.328;2023-01-08T16:53:32;22.10;45.90
72576;DHT22;60613;48.658;2.328;2023-01-08T16:55:58;22.10;44.90
72576;DHT22;60613;48.658;2.328;2023-01-08T16:58:24;22.20;44.60
72576;DHT22;60613;48.658;2.328;2023-01-08T17:00:50;22.30;44.30
72576;DHT22;60613;48.658;2.328;2023-01-08T17:03:15;22.30;44.30
72576;DHT22;60613;48.658;2.328;2023-01-08T17:05:41;22.40;44.10
72576;DHT22;60613;48.658;2.328;2023-01-08T17:08:06;22.40;44.10
72576;DHT22;60613;48.658;2.328;2023-01-08T17:10:33;22.40;44.00
72576;DHT22;60613;48.658;2.328;2023-01-08T17:12:58;22.40;44.00
72576;DHT22;60613;48.658;2.328;2023-01-08T17:15:24;22.40;44.20
72576;DHT22;60613;48.658;2.328;2023-01-08T17:17:50;22.40;44.00
72576;DHT22;60613;48.658;2.328;2023-01-08T17:20:15;22.30;44.00
72576;DHT22;60613;48.658;2.328;2023-01-08T17:22:44;22.30;43.90
72576;DHT22;60613;48.658;2.328;2023-01-08T17:25:09;22.20;44.10
72576;DHT22;60613;48.658;2.328;2023-01-08T17:27:35;22.20;44.10
72576;DHT22;60613;48.658;2.328;2023-01-08T17:30:01;22.20;44.20
72576;DHT22;60613;48.658;2.328;2023-01-08T17:32:30;22.30;44.10
72576;DHT22;60613;48.658;2.328;2023-01-08T17:34:55;22.30;45.20
72576;DHT22;60613;48.658;2.328;2023-01-08T17:37:21;22.30;45.10
72576;DHT22;60613;48.658;2.328;2023-01-08T17:39:47;22.30;44.00
72576;DHT22;60613;48.658;2.328;2023-01-08T17:42:13;22.30;43.90
72576;DHT22;60613;48.658;2.328;2023-01-08T17:44:52;22.30;43.90
72576;DHT22;60613;48.658;2.328;2023-01-08T17:47:19;22.30;43.90
72576;DHT22;60613;48.658;2.328;2023-01-08T17:49:49;22.40;44.00
72576;DHT22;60613;48.658;2.328;2023-01-08T17:52:15;22.30;44.00
72576;DHT22;60613;48.658;2.328;2023-01-08T17:54:40;22.40;44.00
72576;DHT22;60613;48.658;2.328;2023-01-08T17:57:06;22.40;44.00
72576;DHT22;60613;48.658;2.328;2023-01-08T17:59:32;22.40;43.90
72576;DHT22;60613;48.658;2.328;2023-01-08T18:01:58;22.30;44.00
72576;DHT22;60613;48.658;2.328;2023-01-08T18:04:23;22.40;44.00
72576;DHT22;60613;48.658;2.328;2023-01-08T18:06:49;22.40;44.00
72576;DHT22;60613;48.658;2.328;2023-01-08T18:09:15;22.40;44.00
72576;DHT22;60613;48.658;2.328;2023-01-08T18:11:41;22.30;43.90
72576;DHT22;60613;48.658;2.328;2023-01-08T18:14:10;22.30;43.80
72576;DHT22;60613;48.658;2.328;2023-01-08T18:16:35;22.40;43.80
72576;DHT22;60613;48.658;2.328;2023-01-08T18:19:01;22.30;44.00
72576;DHT22;60613;48.658;2.328;2023-01-08T18:21:27;22.20;43.80
72576;DHT22;60613;48.658;2.328;2023-01-08T18:23:53;22.20;43.90
72576;DHT22;60613;48.658;2.328;2023-01-08T18:26:20;22.10;44.00
72576;DHT22;60613;48.658;2.328;2023-01-08T18:28:46;22.10;44.40
72576;DHT22;60613;48.658;2.328;2023-01-08T18:31:12;22.00;44.30
72576;DHT22;60613;48.658;2.328;2023-01-08T18:33:39;22.10;44.20
72576;DHT22;60613;48.658;2.328;2023-01-08T18:36:08;22.10;44.20
72576;DHT22;60613;48.658;2.328;2023-01-08T18:38:36;22.10;44.00
72576;DHT22;60613;48.658;2.328;2023-01-08T18:41:02;22.10;44.00
72576;DHT22;60613;48.658;2.328;2023-01-08T18:43:28;22.10;44.10
72576;DHT22;60613;48.658;2.328;2023-01-08T18:45:59;22.10;44.20
72576;DHT22;60613;48.658;2.328;2023-01-08T18:48:27;22.10;44.00
72576;DHT22;60613;48.658;2.328;2023-01-08T18:50:53;22.10;43.90
72576;DHT22;60613;48.658;2.328;2023-01-08T18:53:18;22.10;43.90
72576;DHT22;60613;48.658;2.328;2023-01-08T18:55:44;22.10;43.90
72576;DHT22;60613;48.658;2.328;2023-01-08T18:58:10;22.10;43.90
72576;DHT22;60613;48.658;2.328;2023-01-08T19:00:36;22.10;44.00
72576;DHT22;60613;48.658;2.328;2023-01-08T19:03:02;22.10;44.00
72576;DHT22;60613;48.658;2.328;2023-01-08T19:05:31;22.10;44.00
72576;DHT22;60613;48.658;2.328;2023-01-08T19:07:56;22.10;44.10
72576;DHT22;60613;48.658;2.328;2023-01-08T19:10:22;22.10;44.20
72576;DHT22;60613;48.658;2.328;2023-01-08T19:12:47;22.10;44.20
72576;DHT22;60613;48.658;2.328;2023-01-08T19:15:15;22.10;44.20
72576;DHT22;60613;48.658;2.328;2023-01-08T19:17:40;22.10;44.20
72576;DHT22;60613;48.658;2.328;2023-01-08T19:20:07;22.10;44.30
72576;DHT22;60613;48.658;2.328;2023-01-08T19:22:32;22.00;44.30
72576;DHT22;60613;48.658;2.328;2023-01-08T19:24:58;22.10;44.30
72576;DHT22;60613;48.658;2.328;2023-01-08T19:27:25;22.10;44.30
72576;DHT22;60613;48.658;2.328;2023-01-08T19:29:51;22.00;45.60
72576;DHT22;60613;48.658;2.328;2023-01-08T19:32:16;22.00;44.40
72576;DHT22;60613;48.658;2.328;2023-01-08T19:34:42;22.00;44.50
72576;DHT22;60613;48.658;2.328;2023-01-08T19:37:08;22.00;44.50
72576;DHT22;60613;48.658;2.328;2023-01-08T19:39:33;22.00;44.50
72576;DHT22;60613;48.658;2.328;2023-01-08T19:41:59;21.90;44.70
72576;DHT22;60613;48.658;2.328;2023-01-08T19:44:43;21.90;44.80
72576;DHT22;60613;48.658;2.328;2023-01-08T19:47:09;21.80;44.90
72576;DHT22;60613;48.658;2.328;2023-01-08T19:49:36;21.90;45.10
72576;DHT22;60613;48.658;2.328;2023-01-08T19:52:03;21.80;45.00
72576;DHT22;60613;48.658;2.328;2023-01-08T19:54:29;21.80;45.20
72576;DHT22;60613;48.658;2.328;2023-01-08T19:56:55;21.80;45.40
72576;DHT22;60613;48.658;2.328;2023-01-08T19:59:21;21.80;45.40
72576;DHT22;60613;48.658;2.328;2023-01-08T20:01:46;21.80;45.50
72576;DHT22;60613;48.658;2.328;2023-01-08T20:04:12;21.80;45.50
72576;DHT22;60613;48.658;2.328;2023-01-08T20:06:38;21.80;45.50
72576;DHT22;60613;48.658;2.328;2023-01-08T20:09:04;21.80;45.50
72576;DHT22;60613;48.658;2.328;2023-01-08T20:11:30;21.80;45.40
72576;DHT22;60613;48.658;2.328;2023-01-08T20:13:56;21.80;45.40
72576;DHT22;60613;48.658;2.328;2023-01-08T20:16:27;21.80;46.60
72576;DHT22;60613;48.658;2.328;2023-01-08T20:19:00;21.80;45.50
72576;DHT22;60613;48.658;2.328;2023-01-08T20:21:28;21.80;45.30
72576;DHT22;60613;48.658;2.328;2023-01-08T20:23:59;21.80;45.30
72576;DHT22;60613;48.658;2.328;2023-01-08T20:26:27;21.80;45.30
72576;DHT22;60613;48.658;2.328;2023-01-08T20:28:54;21.80;45.30
72576;DHT22;60613;48.658;2.328;2023-01-08T20:31:22;21.80;45.30
72576;DHT22;60613;48.658;2.328;2023-01-08T20:33:51;21.80;45.30
72576;DHT22;60613;48.658;2.328;2023-01-08T20:36:18;21.80;45.30
72576;DHT22;60613;48.658;2.328;2023-01-08T20:38:45;21.80;45.30
72576;DHT22;60613;48.658;2.328;2023-01-08T20:41:11;21.80;45.20
72576;DHT22;60613;48.658;2.328;2023-01-08T20:43:38;21.80;45.20
72576;DHT22;60613;48.658;2.328;2023-01-08T20:46:04;21.80;45.10
72576;DHT22;60613;48.658;2.328;2023-01-08T20:48:31;21.80;45.10
72576;DHT22;60613;48.658;2.328;2023-01-08T20:50:59;21.80;45.10
72576;DHT22;60613;48.658;2.328;2023-01-08T20:53:26;21.80;45.10
72576;DHT22;60613;48.658;2.328;2023-01-08T20:55:54;21.70;45.00
72576;DHT22;60613;48.658;2.328;2023-01-08T20:58:19;21.80;45.10
72576;DHT22;60613;48.658;2.328;2023-01-08T21:00:45;21.80;45.00
72576;DHT22;60613;48.658;2.328;2023-01-08T21:03:11;21.80;44.80
72576;DHT22;60613;48.658;2.328;2023-01-08T21:05:37;21.80;44.80
72576;DHT22;60613;48.658;2.328;2023-01-08T21:08:06;21.80;44.90
72576;DHT22;60613;48.658;2.328;2023-01-08T21:10:32;21.80;44.80
72576;DHT22;60613;48.658;2.328;2023-01-08T21:12:57;21.70;44.90
72576;DHT22;60613;48.658;2.328;2023-01-08T21:15:23;21.70;44.90
72576;DHT22;60613;48.658;2.328;2023-01-08T21:17:49;21.80;44.90
72576;DHT22;60613;48.658;2.328;2023-01-08T21:20:16;21.70;44.80
72576;DHT22;60613;48.658;2.328;2023-01-08T21:22:41;21.70;44.90
72576;DHT22;60613;48.658;2.328;2023-01-08T21:25:08;21.70;44.80
72576;DHT22;60613;48.658;2.328;2023-01-08T21:27:34;21.70;44.90
72576;DHT22;60613;48.658;2.328;2023-01-08T21:29:59;21.70;44.70
72576;DHT22;60613;48.658;2.328;2023-01-08T21:32:25;21.70;44.70
72576;DHT22;60613;48.658;2.328;2023-01-08T21:34:50;21.70;44.90
72576;DHT22;60613;48.658;2.328;2023-01-08T21:37:17;21.70;44.90
72576;DHT22;60613;48.658;2.328;2023-01-08T21:39:43;21.70;44.80
72576;DHT22;60613;48.658;2.328;2023-01-08T21:42:09;21.70;44.60
72576;DHT22;60613;48.658;2.328;2023-01-08T21:44:54;21.70;44.70
72576;DHT22;60613;48.658;2.328;2023-01-08T21:47:38;21.70;44.60
72576;DHT22;60613;48.658;2.328;2023-01-08T21:50:04;21.70;44.50
72576;DHT22;60613;48.658;2.328;2023-01-08T21:52:30;21.70;44.40
72576;DHT22;60613;48.658;2.328;2023-01-08T21:55:15;21.70;44.50
72576;DHT22;60613;48.658;2.328;2023-01-08T21:57:42;21.80;44.40
